createdAt,value
2019-04-26T00:00:35.264Z,67.08
2019-04-26T00:03:49.742Z,66.40
2019-04-26T00:06:57.340Z,67.02
2019-04-26T00:10:08.294Z,69.84
2019-04-26T00:13:32.085Z,69.84
2019-04-26T00:16:59.446Z,67.75
2019-04-26T00:20:08.251Z,67.11
2019-04-26T00:23:16.106Z,68.42
2019-04-26T00:26:23.250Z,68.49
2019-04-26T00:29:30.304Z,68.69
2019-04-26T00:32:37.287Z,68.23
2019-04-26T00:35:47.903Z,69.35
2019-04-26T00:38:53.228Z,73.07
2019-04-26T00:42:00.252Z,68.42
2019-04-26T00:45:07.507Z,69.78
2019-04-26T00:48:15.112Z,69.44
2019-04-26T00:51:23.399Z,69.84
2019-04-26T00:54:32.285Z,68.93
2019-04-26T00:57:39.292Z,69.29
2019-04-26T01:00:46.540Z,69.45
2019-04-26T01:03:53.443Z,72.11
2019-04-26T01:07:00.129Z,72.11
2019-04-26T01:10:07.269Z,70.96
2019-04-26T01:13:15.340Z,70.85
2019-04-26T01:16:24.259Z,71.04
2019-04-26T01:19:31.575Z,71.26
2019-04-26T01:22:46.304Z,72.38
2019-04-26T01:26:03.881Z,72.38
2019-04-26T01:29:15.020Z,74.16
2019-04-26T01:32:22.129Z,71.71
2019-04-26T01:35:29.246Z,71.89
2019-04-26T01:38:36.565Z,72.26
2019-04-26T01:41:45.322Z,71.72
2019-04-26T01:45:04.661Z,71.72
2019-04-26T01:48:37.241Z,72.03
2019-04-26T01:51:51.723Z,71.86
2019-04-26T01:54:58.522Z,71.76
2019-04-26T01:58:06.366Z,74.66
2019-04-26T02:01:18.027Z,73.62
2019-04-26T02:04:27.783Z,74.15
2019-04-26T02:07:41.592Z,74.03
2019-04-26T02:10:48.631Z,74.31
2019-04-26T02:13:55.776Z,75.22
2019-04-26T02:17:03.310Z,75.22
2019-04-26T02:20:10.410Z,74.72
2019-04-26T02:23:18.277Z,74.55
2019-04-26T02:26:35.726Z,74.40
2019-04-26T02:29:42.651Z,76.10
2019-04-26T02:32:49.670Z,75.69
2019-04-26T02:35:56.540Z,74.24
2019-04-26T02:39:06.365Z,74.97
2019-04-26T02:42:16.248Z,74.97
2019-04-26T02:45:51.377Z,75.78
2019-04-26T02:49:09.934Z,75.05
2019-04-26T02:52:41.429Z,75.30
2019-04-26T02:56:10.467Z,74.41
2019-04-26T02:59:32.368Z,75.15
2019-04-26T03:02:40.462Z,77.06
2019-04-26T03:05:47.621Z,77.06
2019-04-26T03:08:55.934Z,77.53
2019-04-26T03:12:19.935Z,77.53
2019-04-26T03:15:31.672Z,77.17
2019-04-26T03:18:48.240Z,76.28
2019-04-26T03:22:03.635Z,77.54
2019-04-26T03:25:21.336Z,76.68
2019-04-26T03:29:01.778Z,76.03
2019-04-26T03:32:17.278Z,76.48
2019-04-26T03:35:29.382Z,78.79
2019-04-26T03:39:00.939Z,78.79
2019-04-26T03:42:27.139Z,77.27
2019-04-26T03:46:09.525Z,77.27
2019-04-26T03:49:54.827Z,78.00
2019-04-26T03:53:12.916Z,76.72
2019-04-26T03:56:36.633Z,76.72
2019-04-26T03:59:48.277Z,76.92
2019-04-26T04:03:26.912Z,78.20
2019-04-26T04:06:52.444Z,77.05
2019-04-26T04:09:47.932Z,76.96
2019-04-26T04:13:18.565Z,77.61
2019-04-26T04:16:56.783Z,80.62
2019-04-26T04:20:12.249Z,80.62
2019-04-26T04:23:48.863Z,79.42
2019-04-26T04:27:25.535Z,77.61
2019-04-26T04:30:47.783Z,80.75
2019-04-26T04:34:17.424Z,80.75
2019-04-26T04:37:25.357Z,79.22
2019-04-26T04:40:50.774Z,78.42
2019-04-26T04:44:33.279Z,76.44
2019-04-26T04:47:52.497Z,77.68
2019-04-26T04:51:12.970Z,77.20
2019-04-26T04:55:07.159Z,76.60
2019-04-26T04:58:22.589Z,76.95
2019-04-26T05:01:53.594Z,79.21
2019-04-26T05:05:22.404Z,77.53
2019-04-26T05:09:02.889Z,77.53
2019-04-26T05:12:21.370Z,78.53
2019-04-26T05:16:05.008Z,76.01
2019-04-26T05:19:59.931Z,76.67
2019-04-26T05:23:20.383Z,75.90
2019-04-26T05:26:36.857Z,75.06
2019-04-26T05:30:04.589Z,74.45
2019-04-26T05:33:22.526Z,73.55
2019-04-26T05:36:40.244Z,73.55
2019-04-26T05:40:07.247Z,73.91
2019-04-26T05:43:50.296Z,72.70
2019-04-26T05:47:04.492Z,72.62
2019-04-26T05:50:24.393Z,74.56
2019-04-26T05:54:01.487Z,72.67
2019-04-26T05:57:36.297Z,71.82
2019-04-26T06:01:32.529Z,71.18
2019-04-26T06:05:13.311Z,68.23
2019-04-26T06:09:16.756Z,67.22
2019-04-26T06:13:02.992Z,63.46
2019-04-26T06:16:36.103Z,61.77
2019-04-26T06:19:57.370Z,60.22
2019-04-26T06:23:17.558Z,57.92
2019-04-26T06:27:13.564Z,53.89
2019-04-26T06:30:17.919Z,53.89
2019-04-26T06:33:32.606Z,52.01
2019-04-26T06:36:56.083Z,49.41
2019-04-26T06:40:20.061Z,49.41
2019-04-26T06:43:33.268Z,48.78
2019-04-26T06:47:19.239Z,47.07
2019-04-26T06:50:49.132Z,46.17
2019-04-26T06:54:27.375Z,48.38
2019-04-26T06:57:56.295Z,48.38
2019-04-26T07:01:29.653Z,47.27
2019-04-26T07:05:09.583Z,48.46
2019-04-26T07:08:56.713Z,47.73
2019-04-26T07:12:24.441Z,47.73
2019-04-26T07:15:43.111Z,45.51
2019-04-26T07:19:22.321Z,43.67
2019-04-26T07:23:01.032Z,43.72
2019-04-26T07:26:53.610Z,43.84
2019-04-26T07:30:17.433Z,42.17
2019-04-26T07:34:05.314Z,44.23
2019-04-26T07:37:43.591Z,44.23
2019-04-26T07:41:18.356Z,41.22
2019-04-26T07:44:29.514Z,41.22
2019-04-26T07:48:20.410Z,42.48
2019-04-26T07:51:50.444Z,40.84
2019-04-26T07:55:34.626Z,41.92
2019-04-26T07:59:09.309Z,40.43
2019-04-26T08:02:54.021Z,40.70
2019-04-26T08:06:07.513Z,40.11
2019-04-26T08:09:26.423Z,39.71
2019-04-26T08:12:24.292Z,39.71
2019-04-26T08:15:46.947Z,44.09
2019-04-26T08:19:00.397Z,42.49
2019-04-26T08:22:18.200Z,42.46
2019-04-26T08:25:17.763Z,42.76
2019-04-26T08:28:25.265Z,41.17
2019-04-26T08:31:32.622Z,41.13
2019-04-26T08:34:40.340Z,40.99
2019-04-26T08:37:49.037Z,40.92
2019-04-26T08:41:00.361Z,41.06
2019-04-26T08:44:12.949Z,42.68
2019-04-26T08:47:31.249Z,40.36
2019-04-26T08:50:42.271Z,38.29
2019-04-26T08:53:50.558Z,36.94
2019-04-26T08:57:05.505Z,39.13
2019-04-26T09:00:20.365Z,39.14
2019-04-26T09:03:28.319Z,39.14
2019-04-26T09:06:39.510Z,40.92
2019-04-26T09:09:57.047Z,42.35
2019-04-26T09:12:57.285Z,42.35
2019-04-26T09:16:11.404Z,42.07
2019-04-26T09:19:18.274Z,38.74
2019-04-26T09:22:27.758Z,42.04
2019-04-26T09:25:39.702Z,40.86
2019-04-26T09:28:52.904Z,40.91
2019-04-26T09:32:17.536Z,40.84
2019-04-26T09:35:24.369Z,41.52
2019-04-26T09:38:32.260Z,39.03
2019-04-26T09:41:39.254Z,44.44
2019-04-26T09:44:50.481Z,44.11
2019-04-26T09:48:04.710Z,43.30
2019-04-26T09:51:12.313Z,44.68
2019-04-26T09:54:19.293Z,43.52
2019-04-26T09:57:26.305Z,44.97
2019-04-26T10:00:33.619Z,43.79
2019-04-26T10:03:42.250Z,44.32
2019-04-26T10:06:49.312Z,42.28
2019-04-26T10:10:00.757Z,43.46
2019-04-26T10:13:15.080Z,42.93
2019-04-26T10:16:21.425Z,42.92
2019-04-26T10:19:36.070Z,44.47
2019-04-26T10:22:43.183Z,45.75
2019-04-26T10:25:52.124Z,43.42
2019-04-26T10:28:59.102Z,43.44
2019-04-26T10:32:06.253Z,44.43
2019-04-26T10:35:13.320Z,44.19
2019-04-26T10:38:23.706Z,43.78
2019-04-26T10:41:29.311Z,42.69
2019-04-26T10:44:39.794Z,41.51
2019-04-26T10:47:45.300Z,41.15
2019-04-26T10:50:52.259Z,40.94
2019-04-26T10:54:06.120Z,45.06
2019-04-26T10:57:13.852Z,42.89
2019-04-26T11:00:25.254Z,44.34
2019-04-26T11:03:34.940Z,40.71
2019-04-26T11:06:41.259Z,40.71
2019-04-26T11:09:48.250Z,41.49
2019-04-26T11:12:55.274Z,42.60
2019-04-26T11:16:07.116Z,44.08
2019-04-26T11:19:12.344Z,44.50
2019-04-26T11:22:29.039Z,43.17
2019-04-26T11:25:29.489Z,42.09
2019-04-26T11:28:36.590Z,41.24
2019-04-26T11:31:45.469Z,41.56
2019-04-26T11:34:54.543Z,41.56
2019-04-26T11:38:02.238Z,42.08
2019-04-26T11:41:09.403Z,45.82
2019-04-26T11:44:16.621Z,42.99
2019-04-26T11:47:23.596Z,43.89
2019-04-26T11:50:30.396Z,45.47
2019-04-26T11:53:40.142Z,45.47
2019-04-26T11:56:45.507Z,45.06
2019-04-26T11:59:52.382Z,48.66
2019-04-26T12:02:59.283Z,46.13
2019-04-26T12:06:07.884Z,47.16
2019-04-26T12:09:19.444Z,47.29
2019-04-26T12:12:26.512Z,47.73
2019-04-26T12:15:39.126Z,48.55
2019-04-26T12:18:45.640Z,46.90
2019-04-26T12:21:55.172Z,46.08
2019-04-26T12:25:03.404Z,46.79
2019-04-26T12:28:10.982Z,48.40
2019-04-26T12:31:17.890Z,49.03
2019-04-26T12:34:25.260Z,47.99
2019-04-26T12:37:32.309Z,49.48
2019-04-26T12:40:38.521Z,50.85
2019-04-26T12:43:44.638Z,50.05
2019-04-26T12:47:09.337Z,49.93
2019-04-26T12:50:16.270Z,49.93
2019-04-26T12:53:26.637Z,50.56
2019-04-26T12:56:32.783Z,50.39
2019-04-26T12:59:44.382Z,49.93
2019-04-26T13:02:50.196Z,52.30
2019-04-26T13:05:58.858Z,51.70
2019-04-26T13:09:16.616Z,52.67
2019-04-26T13:12:29.867Z,53.95
2019-04-26T13:15:51.810Z,53.95
2019-04-26T13:18:59.256Z,53.99
2019-04-26T13:22:08.520Z,55.14
2019-04-26T13:25:20.243Z,55.90
2019-04-26T13:28:24.029Z,56.80
2019-04-26T13:31:32.011Z,57.24
2019-04-26T13:34:39.487Z,57.03
2019-04-26T13:37:46.460Z,57.03
2019-04-26T13:40:54.120Z,58.05
2019-04-26T13:44:05.694Z,58.05
2019-04-26T13:47:16.271Z,57.88
2019-04-26T13:50:26.674Z,57.03
2019-04-26T13:53:33.555Z,57.05
2019-04-26T13:56:40.441Z,57.05
2019-04-26T13:59:47.782Z,57.07
2019-04-26T14:02:55.380Z,57.10
2019-04-26T14:06:02.800Z,57.72
2019-04-26T14:09:11.978Z,57.70
2019-04-26T14:12:19.455Z,57.51
2019-04-26T14:15:26.942Z,59.37
2019-04-26T14:18:39.092Z,59.66
2019-04-26T14:21:44.619Z,59.90
2019-04-26T14:24:58.531Z,58.29
2019-04-26T14:28:05.923Z,58.84
2019-04-26T14:31:16.602Z,59.31
2019-04-26T14:34:23.246Z,60.49
2019-04-26T14:37:30.423Z,63.00
2019-04-26T14:40:39.335Z,62.86
2019-04-26T14:43:46.942Z,66.07
2019-04-26T14:46:56.783Z,66.69
2019-04-26T14:50:13.384Z,70.74
2019-04-26T14:53:11.672Z,70.74
2019-04-26T14:56:29.440Z,71.10
2019-04-26T14:59:39.463Z,71.49
2019-04-26T15:02:55.801Z,72.80
2019-04-26T15:06:16.912Z,73.18
2019-04-26T15:09:32.981Z,72.48
2019-04-26T15:12:45.724Z,72.48
2019-04-26T15:15:43.463Z,71.74
2019-04-26T15:18:52.469Z,72.46
2019-04-26T15:22:04.153Z,74.42
2019-04-26T15:25:11.978Z,73.89
2019-04-26T15:28:18.030Z,74.87
2019-04-26T15:31:27.109Z,74.24
2019-04-26T15:34:34.278Z,74.54
2019-04-26T15:37:42.276Z,75.42
2019-04-26T15:41:11.679Z,77.14
2019-04-26T15:44:32.646Z,77.43
2019-04-26T15:47:57.922Z,78.39
2019-04-26T15:51:04.889Z,78.88
2019-04-26T15:54:11.739Z,77.99
2019-04-26T15:57:19.353Z,80.03
2019-04-26T16:00:28.408Z,80.82
2019-04-26T16:03:40.526Z,82.71
2019-04-26T16:06:45.616Z,82.71
2019-04-26T16:09:55.985Z,82.76
2019-04-26T16:13:16.167Z,82.76
2019-04-26T16:16:12.503Z,82.12
2019-04-26T16:19:19.135Z,82.50
2019-04-26T16:22:30.084Z,81.68
2019-04-26T16:25:38.407Z,82.50
2019-04-26T16:28:45.927Z,81.40
2019-04-26T16:32:12.507Z,82.90
2019-04-26T16:35:25.605Z,82.90
2019-04-26T16:38:37.829Z,83.00
2019-04-26T16:41:45.247Z,82.93
2019-04-26T16:44:53.109Z,81.32
2019-04-26T16:48:01.882Z,82.80
2019-04-26T16:51:10.037Z,89.11
2019-04-26T16:54:22.076Z,89.11
2019-04-26T16:57:25.787Z,89.30
2019-04-26T17:00:50.205Z,89.02
2019-04-26T17:03:45.149Z,87.69
2019-04-26T17:06:49.681Z,87.72
2019-04-26T17:09:59.366Z,94.44
2019-04-26T17:13:05.387Z,94.44
2019-04-26T17:16:12.864Z,95.26
2019-04-26T17:19:20.448Z,94.58
2019-04-26T17:22:44.689Z,93.50
2019-04-26T17:25:55.193Z,86.87
2019-04-26T17:29:02.414Z,86.87
2019-04-26T17:32:13.941Z,87.81
2019-04-26T17:35:18.973Z,85.97
2019-04-26T17:38:27.564Z,88.78
2019-04-26T17:41:35.053Z,90.66
2019-04-26T17:44:42.045Z,90.66
2019-04-26T17:47:50.677Z,92.24
2019-04-26T17:50:58.015Z,91.59
2019-04-26T17:54:26.509Z,90.71
2019-04-26T17:57:16.263Z,91.75
2019-04-26T18:00:26.877Z,92.29
2019-04-26T18:03:35.393Z,92.11
2019-04-26T18:06:45.368Z,92.11
2019-04-26T18:09:52.576Z,92.15
2019-04-26T18:13:01.792Z,89.43
2019-04-26T18:16:10.353Z,90.70
2019-04-26T18:19:31.903Z,91.64
2019-04-26T18:22:47.127Z,91.46
2019-04-26T18:25:54.259Z,91.53
2019-04-26T18:29:01.309Z,91.65
2019-04-26T18:32:09.561Z,91.66
2019-04-26T18:35:16.980Z,91.48
2019-04-26T18:38:24.806Z,91.48
2019-04-26T18:41:33.965Z,91.66
2019-04-26T18:44:47.386Z,91.35
2019-04-26T18:47:50.247Z,90.67
2019-04-26T18:50:58.477Z,91.01
2019-04-26T18:54:23.403Z,91.42
2019-04-26T18:57:30.594Z,90.67
2019-04-26T19:00:39.267Z,91.04
2019-04-26T19:03:46.268Z,91.04
2019-04-26T19:06:55.669Z,91.18
2019-04-26T19:10:05.418Z,91.33
2019-04-26T19:13:36.555Z,91.47
2019-04-26T19:16:50.256Z,91.46
2019-04-26T19:20:03.698Z,91.32
2019-04-26T19:23:13.074Z,90.72
2019-04-26T19:26:31.750Z,91.17
2019-04-26T19:29:33.619Z,91.39
2019-04-26T19:32:39.581Z,91.33
2019-04-26T19:35:47.539Z,91.54
2019-04-26T19:38:57.995Z,90.60
2019-04-26T19:42:06.240Z,90.94
2019-04-26T19:45:19.531Z,90.89
2019-04-26T19:48:31.428Z,91.13
2019-04-26T19:52:03.564Z,91.28
2019-04-26T19:55:11.469Z,90.25
2019-04-26T19:58:26.574Z,91.21
2019-04-26T20:01:33.707Z,91.12
2019-04-26T20:04:44.340Z,91.12
2019-04-26T20:07:51.956Z,91.01
2019-04-26T20:11:01.319Z,91.53
2019-04-26T20:14:09.298Z,91.40
2019-04-26T20:17:19.746Z,91.36
2019-04-26T20:20:27.790Z,90.91
2019-04-26T20:23:38.385Z,91.07
2019-04-26T20:26:44.953Z,91.07
2019-04-26T20:29:52.302Z,91.01
2019-04-26T20:33:01.777Z,90.92
2019-04-26T20:36:09.754Z,90.10
2019-04-26T20:39:20.886Z,91.06
2019-04-26T20:42:26.298Z,91.11
2019-04-26T20:45:41.377Z,90.86
2019-04-26T20:48:42.678Z,91.03
2019-04-26T20:51:51.909Z,91.24
2019-04-26T20:55:00.528Z,91.24
2019-04-26T20:58:09.425Z,91.24
2019-04-26T21:01:17.444Z,91.24
2019-04-26T21:04:35.099Z,90.59
2019-04-26T21:07:32.590Z,90.81
2019-04-26T21:10:41.581Z,90.98
2019-04-26T21:13:49.732Z,90.89
2019-04-26T21:20:23.316Z,90.96
2019-04-26T21:23:35.005Z,91.04
2019-04-26T21:26:58.308Z,91.14
2019-04-26T21:30:21.795Z,90.96
2019-04-26T21:33:38.926Z,91.11
2019-04-26T21:36:59.688Z,90.50
2019-04-26T21:40:23.169Z,91.11
2019-04-26T21:43:29.446Z,91.13
2019-04-26T21:46:38.578Z,91.48
2019-04-26T21:49:45.629Z,91.47
2019-04-26T21:52:54.113Z,91.47
2019-04-26T21:56:02.934Z,91.48
2019-04-26T21:59:10.394Z,91.19
2019-04-26T22:02:17.799Z,90.94
2019-04-26T22:05:26.571Z,91.21
2019-04-26T22:08:50.477Z,91.14
2019-04-26T22:11:58.283Z,90.99
2019-04-26T22:15:13.660Z,90.99
2019-04-26T22:18:41.294Z,90.89
2019-04-26T22:21:59.447Z,90.60
2019-04-26T22:25:09.354Z,90.95
2019-04-26T22:28:16.357Z,90.96
2019-04-26T22:31:23.728Z,90.97
2019-04-26T22:34:30.681Z,90.04
2019-04-26T22:37:37.475Z,90.58
2019-04-26T22:40:44.075Z,90.82
2019-04-26T22:43:55.558Z,90.83
2019-04-26T22:47:15.733Z,90.54
2019-04-26T22:50:25.125Z,91.05
2019-04-26T22:53:32.863Z,91.37
2019-04-26T22:56:39.780Z,91.17
2019-04-26T22:59:50.119Z,90.89
2019-04-26T23:02:58.087Z,90.81
2019-04-26T23:06:07.877Z,90.54
2019-04-26T23:09:16.966Z,91.22
2019-04-26T23:12:27.971Z,91.22
2019-04-26T23:15:37.366Z,91.29
2019-04-26T23:19:03.736Z,91.02
2019-04-26T23:22:12.773Z,90.84
2019-04-26T23:25:21.300Z,90.69
2019-04-26T23:28:33.950Z,90.67
2019-04-26T23:31:41.653Z,90.78
2019-04-26T23:34:46.590Z,90.07
2019-04-26T23:37:56.562Z,90.46
2019-04-26T23:41:07.084Z,90.46
2019-04-26T23:44:10.778Z,90.64
2019-04-26T23:47:22.401Z,90.54
2019-04-26T23:50:29.400Z,90.80
2019-04-26T23:53:36.444Z,90.48
2019-04-26T23:56:44.256Z,90.48
2019-04-26T23:59:56.451Z,91.24
